sensor_id;sensor_type;location;lat;lon;timestamp;P1;durP1;ratioP1;P2;durP2;ratioP2
65879;SDS011;52661;51.364;6.054;2023-07-13T00:00:27;2.75;;;0.65;;
65879;SDS011;52661;51.364;6.054;2023-07-13T00:02:53;4.40;;;0.63;;
65879;SDS011;52661;51.364;6.054;2023-07-13T00:05:19;1.83;;;0.35;;
65879;SDS011;52661;51.364;6.054;2023-07-13T00:07:45;5.97;;;0.70;;
65879;SDS011;52661;51.364;6.054;2023-07-13T00:10:11;2.83;;;0.57;;
65879;SDS011;52661;51.364;6.054;2023-07-13T00:12:37;2.88;;;0.45;;
65879;SDS011;52661;51.364;6.054;2023-07-13T00:15:05;5.28;;;0.65;;
65879;SDS011;52661;51.364;6.054;2023-07-13T00:17:33;2.83;;;0.88;;
65879;SDS011;52661;51.364;6.054;2023-07-13T00:19:58;5.53;;;0.63;;
65879;SDS011;52661;51.364;6.054;2023-07-13T00:22:24;4.13;;;0.50;;
65879;SDS011;52661;51.364;6.054;2023-07-13T00:24:53;2.88;;;0.77;;
65879;SDS011;52661;51.364;6.054;2023-07-13T00:27:21;3.35;;;0.38;;
65879;SDS011;52661;51.364;6.054;2023-07-13T00:29:47;1.77;;;0.45;;
65879;SDS011;52661;51.364;6.054;2023-07-13T00:32:13;4.65;;;0.52;;
65879;SDS011;52661;51.364;6.054;2023-07-13T00:34:39;4.13;;;0.43;;
65879;SDS011;52661;51.364;6.054;2023-07-13T00:37:05;2.50;;;0.52;;
65879;SDS011;52661;51.364;6.054;2023-07-13T00:39:34;4.22;;;0.68;;
65879;SDS011;52661;51.364;6.054;2023-07-13T00:42:00;2.03;;;0.30;;
65879;SDS011;52661;51.364;6.054;2023-07-13T00:44:26;3.72;;;0.73;;
65879;SDS011;52661;51.364;6.054;2023-07-13T00:46:52;3.25;;;0.75;;
65879;SDS011;52661;51.364;6.054;2023-07-13T00:49:19;2.80;;;0.60;;
65879;SDS011;52661;51.364;6.054;2023-07-13T00:51:58;4.45;;;0.82;;
65879;SDS011;52661;51.364;6.054;2023-07-13T00:54:32;2.35;;;0.43;;
65879;SDS011;52661;51.364;6.054;2023-07-13T00:57:03;2.40;;;0.52;;
65879;SDS011;52661;51.364;6.054;2023-07-13T00:59:32;2.30;;;0.50;;
65879;SDS011;52661;51.364;6.054;2023-07-13T01:02:00;2.88;;;0.55;;
65879;SDS011;52661;51.364;6.054;2023-07-13T01:04:26;3.88;;;0.75;;
65879;SDS011;52661;51.364;6.054;2023-07-13T01:06:51;1.90;;;0.63;;
65879;SDS011;52661;51.364;6.054;2023-07-13T01:09:19;1.63;;;0.65;;
65879;SDS011;52661;51.364;6.054;2023-07-13T01:11:46;3.28;;;0.68;;
65879;SDS011;52661;51.364;6.054;2023-07-13T01:14:12;2.45;;;0.52;;
65879;SDS011;52661;51.364;6.054;2023-07-13T01:16:39;4.63;;;0.45;;
65879;SDS011;52661;51.364;6.054;2023-07-13T01:19:25;3.60;;;0.50;;
65879;SDS011;52661;51.364;6.054;2023-07-13T01:22:01;4.13;;;0.60;;
65879;SDS011;52661;51.364;6.054;2023-07-13T01:24:38;2.15;;;0.50;;
65879;SDS011;52661;51.364;6.054;2023-07-13T01:27:05;3.85;;;0.52;;
65879;SDS011;52661;51.364;6.054;2023-07-13T01:29:35;7.03;;;0.43;;
65879;SDS011;52661;51.364;6.054;2023-07-13T01:32:07;6.95;;;0.93;;
65879;SDS011;52661;51.364;6.054;2023-07-13T01:34:34;4.20;;;0.43;;
65879;SDS011;52661;51.364;6.054;2023-07-13T01:36:59;3.72;;;0.40;;
65879;SDS011;52661;51.364;6.054;2023-07-13T01:39:24;4.15;;;0.45;;
65879;SDS011;52661;51.364;6.054;2023-07-13T01:41:50;3.78;;;0.75;;
65879;SDS011;52661;51.364;6.054;2023-07-13T01:44:15;3.95;;;0.55;;
65879;SDS011;52661;51.364;6.054;2023-07-13T01:46:40;3.75;;;0.82;;
65879;SDS011;52661;51.364;6.054;2023-07-13T01:49:06;3.13;;;0.45;;
65879;SDS011;52661;51.364;6.054;2023-07-13T01:51:31;1.40;;;0.38;;
65879;SDS011;52661;51.364;6.054;2023-07-13T01:53:57;3.53;;;0.40;;
65879;SDS011;52661;51.364;6.054;2023-07-13T01:56:22;3.72;;;0.73;;
65879;SDS011;52661;51.364;6.054;2023-07-13T01:58:47;2.35;;;0.63;;
65879;SDS011;52661;51.364;6.054;2023-07-13T02:01:13;2.17;;;1.40;;
65879;SDS011;52661;51.364;6.054;2023-07-13T02:03:38;4.90;;;0.80;;
65879;SDS011;52661;51.364;6.054;2023-07-13T02:06:04;4.10;;;0.60;;
65879;SDS011;52661;51.364;6.054;2023-07-13T02:08:30;6.32;;;0.52;;
65879;SDS011;52661;51.364;6.054;2023-07-13T02:10:57;2.35;;;0.52;;
65879;SDS011;52661;51.364;6.054;2023-07-13T02:13:22;3.10;;;0.55;;
65879;SDS011;52661;51.364;6.054;2023-07-13T02:15:50;2.20;;;0.60;;
65879;SDS011;52661;51.364;6.054;2023-07-13T02:18:16;3.47;;;0.68;;
65879;SDS011;52661;51.364;6.054;2023-07-13T02:20:42;4.05;;;1.13;;
65879;SDS011;52661;51.364;6.054;2023-07-13T02:23:08;4.05;;;0.63;;
65879;SDS011;52661;51.364;6.054;2023-07-13T02:25:33;1.63;;;0.47;;
65879;SDS011;52661;51.364;6.054;2023-07-13T02:27:58;4.18;;;0.85;;
65879;SDS011;52661;51.364;6.054;2023-07-13T02:30:24;2.83;;;0.57;;
65879;SDS011;52661;51.364;6.054;2023-07-13T02:32:50;3.80;;;0.70;;
65879;SDS011;52661;51.364;6.054;2023-07-13T02:35:15;2.75;;;0.55;;
65879;SDS011;52661;51.364;6.054;2023-07-13T02:37:41;4.43;;;0.40;;
65879;SDS011;52661;51.364;6.054;2023-07-13T02:40:06;4.97;;;0.88;;
65879;SDS011;52661;51.364;6.054;2023-07-13T02:42:33;3.95;;;0.50;;
65879;SDS011;52661;51.364;6.054;2023-07-13T02:44:59;2.15;;;0.50;;
65879;SDS011;52661;51.364;6.054;2023-07-13T02:47:25;4.53;;;0.50;;
65879;SDS011;52661;51.364;6.054;2023-07-13T02:49:51;5.20;;;0.68;;
65879;SDS011;52661;51.364;6.054;2023-07-13T02:52:17;5.03;;;0.50;;
65879;SDS011;52661;51.364;6.054;2023-07-13T02:54:43;2.00;;;0.80;;
65879;SDS011;52661;51.364;6.054;2023-07-13T02:57:08;4.90;;;0.73;;
65879;SDS011;52661;51.364;6.054;2023-07-13T02:59:33;5.43;;;1.02;;
65879;SDS011;52661;51.364;6.054;2023-07-13T03:02:00;2.38;;;0.82;;
65879;SDS011;52661;51.364;6.054;2023-07-13T03:04:27;4.00;;;0.68;;
65879;SDS011;52661;51.364;6.054;2023-07-13T03:06:52;4.95;;;1.08;;
65879;SDS011;52661;51.364;6.054;2023-07-13T03:09:18;5.82;;;0.65;;
65879;SDS011;52661;51.364;6.054;2023-07-13T03:11:43;3.05;;;0.88;;
65879;SDS011;52661;51.364;6.054;2023-07-13T03:14:08;5.97;;;0.60;;
65879;SDS011;52661;51.364;6.054;2023-07-13T03:16:34;4.32;;;0.73;;
65879;SDS011;52661;51.364;6.054;2023-07-13T03:18:59;2.97;;;0.52;;
65879;SDS011;52661;51.364;6.054;2023-07-13T03:21:25;3.75;;;0.40;;
65879;SDS011;52661;51.364;6.054;2023-07-13T03:23:50;4.03;;;0.75;;
65879;SDS011;52661;51.364;6.054;2023-07-13T03:26:17;2.08;;;0.77;;
65879;SDS011;52661;51.364;6.054;2023-07-13T03:28:44;3.88;;;0.95;;
65879;SDS011;52661;51.364;6.054;2023-07-13T03:31:11;6.30;;;0.82;;
65879;SDS011;52661;51.364;6.054;2023-07-13T03:33:44;2.17;;;0.63;;
65879;SDS011;52661;51.364;6.054;2023-07-13T03:36:11;4.43;;;1.17;;
65879;SDS011;52661;51.364;6.054;2023-07-13T03:38:39;4.32;;;0.55;;
65879;SDS011;52661;51.364;6.054;2023-07-13T03:41:05;5.00;;;0.40;;
65879;SDS011;52661;51.364;6.054;2023-07-13T03:43:30;7.10;;;0.63;;
65879;SDS011;52661;51.364;6.054;2023-07-13T03:45:55;4.63;;;0.95;;
65879;SDS011;52661;51.364;6.054;2023-07-13T03:48:21;4.68;;;1.60;;
65879;SDS011;52661;51.364;6.054;2023-07-13T03:50:47;4.18;;;0.60;;
65879;SDS011;52661;51.364;6.054;2023-07-13T03:53:14;2.78;;;0.82;;
65879;SDS011;52661;51.364;6.054;2023-07-13T03:55:40;3.13;;;0.82;;
65879;SDS011;52661;51.364;6.054;2023-07-13T04:01:06;3.40;;;0.65;;
65879;SDS011;52661;51.364;6.054;2023-07-13T04:03:33;3.08;;;0.98;;
65879;SDS011;52661;51.364;6.054;2023-07-13T04:06:00;4.68;;;0.55;;
65879;SDS011;52661;51.364;6.054;2023-07-13T04:08:27;3.00;;;0.70;;
65879;SDS011;52661;51.364;6.054;2023-07-13T04:10:52;5.57;;;0.75;;
65879;SDS011;52661;51.364;6.054;2023-07-13T04:13:18;3.28;;;0.40;;
65879;SDS011;52661;51.364;6.054;2023-07-13T04:15:43;2.95;;;1.13;;
65879;SDS011;52661;51.364;6.054;2023-07-13T04:18:09;5.10;;;1.02;;
65879;SDS011;52661;51.364;6.054;2023-07-13T04:20:34;5.53;;;0.95;;
65879;SDS011;52661;51.364;6.054;2023-07-13T04:23:00;6.57;;;1.13;;
65879;SDS011;52661;51.364;6.054;2023-07-13T04:25:26;4.30;;;0.80;;
65879;SDS011;52661;51.364;6.054;2023-07-13T04:27:52;3.00;;;0.93;;
65879;SDS011;52661;51.364;6.054;2023-07-13T04:30:18;4.70;;;0.95;;
65879;SDS011;52661;51.364;6.054;2023-07-13T04:32:43;5.90;;;0.68;;
65879;SDS011;52661;51.364;6.054;2023-07-13T04:35:09;5.25;;;1.10;;
65879;SDS011;52661;51.364;6.054;2023-07-13T04:37:34;3.17;;;0.98;;
65879;SDS011;52661;51.364;6.054;2023-07-13T04:40:00;7.28;;;0.85;;
65879;SDS011;52661;51.364;6.054;2023-07-13T04:42:26;3.20;;;0.80;;
65879;SDS011;52661;51.364;6.054;2023-07-13T04:44:51;7.28;;;1.10;;
65879;SDS011;52661;51.364;6.054;2023-07-13T04:47:17;6.03;;;1.20;;
65879;SDS011;52661;51.364;6.054;2023-07-13T04:49:43;7.15;;;0.80;;
65879;SDS011;52661;51.364;6.054;2023-07-13T04:52:09;6.00;;;0.93;;
65879;SDS011;52661;51.364;6.054;2023-07-13T04:54:35;7.03;;;1.52;;
65879;SDS011;52661;51.364;6.054;2023-07-13T04:57:02;4.68;;;0.85;;
65879;SDS011;52661;51.364;6.054;2023-07-13T04:59:29;6.93;;;0.98;;
65879;SDS011;52661;51.364;6.054;2023-07-13T05:01:54;6.25;;;1.05;;
65879;SDS011;52661;51.364;6.054;2023-07-13T05:04:20;5.38;;;1.05;;
65879;SDS011;52661;51.364;6.054;2023-07-13T05:06:45;5.28;;;1.13;;
65879;SDS011;52661;51.364;6.054;2023-07-13T05:09:11;5.18;;;0.82;;
65879;SDS011;52661;51.364;6.054;2023-07-13T05:11:37;4.25;;;1.00;;
65879;SDS011;52661;51.364;6.054;2023-07-13T05:14:03;6.30;;;1.02;;
65879;SDS011;52661;51.364;6.054;2023-07-13T05:16:28;8.07;;;0.93;;
65879;SDS011;52661;51.364;6.054;2023-07-13T05:18:53;4.57;;;1.13;;
65879;SDS011;52661;51.364;6.054;2023-07-13T05:21:19;8.27;;;1.23;;
65879;SDS011;52661;51.364;6.054;2023-07-13T05:23:45;5.70;;;1.17;;
65879;SDS011;52661;51.364;6.054;2023-07-13T05:26:11;6.28;;;1.05;;
65879;SDS011;52661;51.364;6.054;2023-07-13T05:28:36;5.63;;;1.23;;
65879;SDS011;52661;51.364;6.054;2023-07-13T05:31:02;6.13;;;1.05;;
65879;SDS011;52661;51.364;6.054;2023-07-13T05:33:28;10.40;;;2.50;;
65879;SDS011;52661;51.364;6.054;2023-07-13T05:35:54;5.07;;;1.15;;
65879;SDS011;52661;51.364;6.054;2023-07-13T05:38:19;3.92;;;0.70;;
65879;SDS011;52661;51.364;6.054;2023-07-13T05:40:45;8.93;;;1.52;;
65879;SDS011;52661;51.364;6.054;2023-07-13T05:43:11;6.72;;;1.13;;
65879;SDS011;52661;51.364;6.054;2023-07-13T05:45:37;5.28;;;1.35;;
65879;SDS011;52661;51.364;6.054;2023-07-13T05:48:03;9.80;;;1.75;;
65879;SDS011;52661;51.364;6.054;2023-07-13T05:50:28;4.13;;;0.88;;
65879;SDS011;52661;51.364;6.054;2023-07-13T05:52:54;13.48;;;1.45;;
65879;SDS011;52661;51.364;6.054;2023-07-13T05:55:19;6.50;;;1.95;;
65879;SDS011;52661;51.364;6.054;2023-07-13T05:57:45;6.65;;;1.63;;
65879;SDS011;52661;51.364;6.054;2023-07-13T06:00:11;9.32;;;1.67;;
65879;SDS011;52661;51.364;6.054;2023-07-13T06:02:37;8.27;;;1.33;;
65879;SDS011;52661;51.364;6.054;2023-07-13T06:05:02;9.18;;;1.50;;
65879;SDS011;52661;51.364;6.054;2023-07-13T06:07:28;6.10;;;1.98;;
65879;SDS011;52661;51.364;6.054;2023-07-13T06:09:54;5.55;;;1.65;;
65879;SDS011;52661;51.364;6.054;2023-07-13T06:12:19;5.88;;;1.52;;
65879;SDS011;52661;51.364;6.054;2023-07-13T06:14:44;10.05;;;1.75;;
65879;SDS011;52661;51.364;6.054;2023-07-13T06:17:10;10.77;;;2.03;;
65879;SDS011;52661;51.364;6.054;2023-07-13T06:19:35;6.95;;;1.77;;
65879;SDS011;52661;51.364;6.054;2023-07-13T06:22:00;6.13;;;1.58;;
65879;SDS011;52661;51.364;6.054;2023-07-13T06:24:26;5.80;;;1.45;;
65879;SDS011;52661;51.364;6.054;2023-07-13T06:26:51;8.85;;;1.48;;
65879;SDS011;52661;51.364;6.054;2023-07-13T06:29:17;9.20;;;1.35;;
65879;SDS011;52661;51.364;6.054;2023-07-13T06:31:42;7.97;;;1.30;;
65879;SDS011;52661;51.364;6.054;2023-07-13T06:34:08;7.45;;;1.60;;
65879;SDS011;52661;51.364;6.054;2023-07-13T06:36:33;6.28;;;1.25;;
65879;SDS011;52661;51.364;6.054;2023-07-13T06:38:59;8.25;;;1.67;;
65879;SDS011;52661;51.364;6.054;2023-07-13T06:41:24;9.32;;;2.83;;
65879;SDS011;52661;51.364;6.054;2023-07-13T06:43:52;6.18;;;1.50;;
65879;SDS011;52661;51.364;6.054;2023-07-13T06:46:20;7.88;;;1.33;;
65879;SDS011;52661;51.364;6.054;2023-07-13T06:51:11;6.23;;;1.73;;
65879;SDS011;52661;51.364;6.054;2023-07-13T06:53:36;6.03;;;1.75;;
65879;SDS011;52661;51.364;6.054;2023-07-13T06:56:02;10.15;;;2.47;;
65879;SDS011;52661;51.364;6.054;2023-07-13T06:58:27;3.90;;;1.80;;
65879;SDS011;52661;51.364;6.054;2023-07-13T07:00:53;5.40;;;1.63;;
65879;SDS011;52661;51.364;6.054;2023-07-13T07:03:18;4.70;;;1.25;;
65879;SDS011;52661;51.364;6.054;2023-07-13T07:05:44;5.28;;;1.88;;
65879;SDS011;52661;51.364;6.054;2023-07-13T07:08:09;6.17;;;1.67;;
65879;SDS011;52661;51.364;6.054;2023-07-13T07:10:35;6.05;;;2.20;;
65879;SDS011;52661;51.364;6.054;2023-07-13T07:13:01;9.27;;;2.08;;
65879;SDS011;52661;51.364;6.054;2023-07-13T07:15:27;5.75;;;1.90;;
65879;SDS011;52661;51.364;6.054;2023-07-13T07:17:53;8.40;;;1.50;;
65879;SDS011;52661;51.364;6.054;2023-07-13T07:20:18;7.50;;;2.00;;
65879;SDS011;52661;51.364;6.054;2023-07-13T07:22:45;3.45;;;1.02;;
65879;SDS011;52661;51.364;6.054;2023-07-13T07:25:10;7.07;;;2.00;;
65879;SDS011;52661;51.364;6.054;2023-07-13T07:27:36;8.25;;;1.85;;
65879;SDS011;52661;51.364;6.054;2023-07-13T07:30:01;9.70;;;1.88;;
65879;SDS011;52661;51.364;6.054;2023-07-13T07:32:28;5.93;;;1.38;;
65879;SDS011;52661;51.364;6.054;2023-07-13T07:34:54;5.97;;;1.52;;
65879;SDS011;52661;51.364;6.054;2023-07-13T07:37:20;7.63;;;2.17;;
65879;SDS011;52661;51.364;6.054;2023-07-13T07:39:45;9.57;;;2.13;;
65879;SDS011;52661;51.364;6.054;2023-07-13T07:42:10;8.23;;;1.88;;
65879;SDS011;52661;51.364;6.054;2023-07-13T07:44:37;8.50;;;2.03;;
65879;SDS011;52661;51.364;6.054;2023-07-13T07:47:03;9.40;;;2.28;;
65879;SDS011;52661;51.364;6.054;2023-07-13T07:49:29;6.72;;;1.65;;
65879;SDS011;52661;51.364;6.054;2023-07-13T07:51:54;7.95;;;1.98;;
65879;SDS011;52661;51.364;6.054;2023-07-13T07:54:19;9.63;;;2.17;;
65879;SDS011;52661;51.364;6.054;2023-07-13T07:56:45;13.05;;;2.55;;
65879;SDS011;52661;51.364;6.054;2023-07-13T07:59:10;6.53;;;1.60;;
65879;SDS011;52661;51.364;6.054;2023-07-13T08:01:36;9.73;;;2.25;;
65879;SDS011;52661;51.364;6.054;2023-07-13T08:04:02;7.40;;;2.25;;
65879;SDS011;52661;51.364;6.054;2023-07-13T08:06:27;7.78;;;2.03;;
65879;SDS011;52661;51.364;6.054;2023-07-13T08:08:53;5.82;;;2.08;;
65879;SDS011;52661;51.364;6.054;2023-07-13T08:11:20;6.18;;;2.15;;
65879;SDS011;52661;51.364;6.054;2023-07-13T08:13:46;8.48;;;1.90;;
65879;SDS011;52661;51.364;6.054;2023-07-13T08:16:11;9.10;;;2.17;;
65879;SDS011;52661;51.364;6.054;2023-07-13T08:18:37;7.35;;;2.38;;
65879;SDS011;52661;51.364;6.054;2023-07-13T08:21:06;5.07;;;2.25;;
65879;SDS011;52661;51.364;6.054;2023-07-13T08:23:32;10.45;;;2.83;;
65879;SDS011;52661;51.364;6.054;2023-07-13T08:25:58;6.10;;;1.80;;
65879;SDS011;52661;51.364;6.054;2023-07-13T08:28:23;9.10;;;2.63;;
65879;SDS011;52661;51.364;6.054;2023-07-13T08:30:49;7.85;;;1.92;;
65879;SDS011;52661;51.364;6.054;2023-07-13T08:33:18;8.98;;;2.22;;
65879;SDS011;52661;51.364;6.054;2023-07-13T08:35:48;6.53;;;1.92;;
65879;SDS011;52661;51.364;6.054;2023-07-13T08:38:14;9.98;;;2.78;;
65879;SDS011;52661;51.364;6.054;2023-07-13T08:40:40;8.77;;;2.47;;
65879;SDS011;52661;51.364;6.054;2023-07-13T08:43:07;8.63;;;1.88;;
65879;SDS011;52661;51.364;6.054;2023-07-13T08:45:43;16.15;;;3.78;;
65879;SDS011;52661;51.364;6.054;2023-07-13T08:48:17;7.63;;;1.98;;
65879;SDS011;52661;51.364;6.054;2023-07-13T08:50:51;6.07;;;1.77;;
65879;SDS011;52661;51.364;6.054;2023-07-13T08:53:22;5.72;;;1.80;;
65879;SDS011;52661;51.364;6.054;2023-07-13T08:55:56;6.57;;;1.80;;
65879;SDS011;52661;51.364;6.054;2023-07-13T08:58:23;6.28;;;2.08;;
65879;SDS011;52661;51.364;6.054;2023-07-13T09:03:43;7.63;;;1.63;;
65879;SDS011;52661;51.364;6.054;2023-07-13T09:06:27;5.22;;;1.92;;
65879;SDS011;52661;51.364;6.054;2023-07-13T09:09:12;5.13;;;1.65;;
65879;SDS011;52661;51.364;6.054;2023-07-13T09:16:58;6.93;;;1.48;;
65879;SDS011;52661;51.364;6.054;2023-07-13T09:19:28;7.07;;;1.90;;
65879;SDS011;52661;51.364;6.054;2023-07-13T09:21:57;7.25;;;1.80;;
65879;SDS011;52661;51.364;6.054;2023-07-13T09:26:55;5.68;;;1.63;;
65879;SDS011;52661;51.364;6.054;2023-07-13T09:29:29;7.80;;;1.35;;
65879;SDS011;52661;51.364;6.054;2023-07-13T09:32:00;5.93;;;1.65;;
65879;SDS011;52661;51.364;6.054;2023-07-13T09:34:29;7.78;;;1.83;;
65879;SDS011;52661;51.364;6.054;2023-07-13T09:36:58;7.10;;;1.73;;
65879;SDS011;52661;51.364;6.054;2023-07-13T09:39:27;6.00;;;1.13;;
65879;SDS011;52661;51.364;6.054;2023-07-13T09:42:15;5.32;;;1.20;;
65879;SDS011;52661;51.364;6.054;2023-07-13T09:47:19;7.93;;;1.70;;
65879;SDS011;52661;51.364;6.054;2023-07-13T09:49:55;5.18;;;1.25;;
65879;SDS011;52661;51.364;6.054;2023-07-13T09:52:26;5.63;;;1.27;;
65879;SDS011;52661;51.364;6.054;2023-07-13T09:54:53;6.13;;;1.48;;
65879;SDS011;52661;51.364;6.054;2023-07-13T09:57:24;4.45;;;1.75;;
65879;SDS011;52661;51.364;6.054;2023-07-13T09:59:53;7.65;;;1.33;;
65879;SDS011;52661;51.364;6.054;2023-07-13T10:04:58;4.95;;;1.25;;
65879;SDS011;52661;51.364;6.054;2023-07-13T10:07:26;8.02;;;1.83;;
65879;SDS011;52661;51.364;6.054;2023-07-13T10:09:56;4.72;;;1.65;;
65879;SDS011;52661;51.364;6.054;2023-07-13T10:12:23;4.78;;;1.02;;
65879;SDS011;52661;51.364;6.054;2023-07-13T10:15:12;6.05;;;1.17;;
65879;SDS011;52661;51.364;6.054;2023-07-13T10:17:40;5.65;;;1.52;;
65879;SDS011;52661;51.364;6.054;2023-07-13T10:20:06;6.15;;;1.35;;
65879;SDS011;52661;51.364;6.054;2023-07-13T10:22:45;5.22;;;0.93;;
65879;SDS011;52661;51.364;6.054;2023-07-13T10:25:26;4.68;;;1.27;;
65879;SDS011;52661;51.364;6.054;2023-07-13T10:28:02;5.53;;;1.05;;
65879;SDS011;52661;51.364;6.054;2023-07-13T10:30:49;5.00;;;1.35;;
65879;SDS011;52661;51.364;6.054;2023-07-13T10:33:17;4.50;;;1.08;;
65879;SDS011;52661;51.364;6.054;2023-07-13T10:35:43;4.85;;;1.20;;
65879;SDS011;52661;51.364;6.054;2023-07-13T10:38:12;4.40;;;1.10;;
65879;SDS011;52661;51.364;6.054;2023-07-13T10:41:17;4.15;;;1.20;;
65879;SDS011;52661;51.364;6.054;2023-07-13T10:43:42;4.45;;;1.20;;
65879;SDS011;52661;51.364;6.054;2023-07-13T10:46:11;3.80;;;1.10;;
65879;SDS011;52661;51.364;6.054;2023-07-13T10:48:40;9.00;;;1.58;;
65879;SDS011;52661;51.364;6.054;2023-07-13T10:51:07;2.00;;;0.90;;
65879;SDS011;52661;51.364;6.054;2023-07-13T10:53:35;4.78;;;1.08;;
65879;SDS011;52661;51.364;6.054;2023-07-13T10:58:39;9.75;;;1.00;;
65879;SDS011;52661;51.364;6.054;2023-07-13T11:03:36;5.60;;;0.70;;
65879;SDS011;52661;51.364;6.054;2023-07-13T11:06:46;4.50;;;1.13;;
65879;SDS011;52661;51.364;6.054;2023-07-13T11:12:08;2.70;;;0.70;;
65879;SDS011;52661;51.364;6.054;2023-07-13T11:19:53;5.13;;;0.77;;
65879;SDS011;52661;51.364;6.054;2023-07-13T11:22:23;7.28;;;1.30;;
65879;SDS011;52661;51.364;6.054;2023-07-13T11:24:51;3.25;;;1.00;;
65879;SDS011;52661;51.364;6.054;2023-07-13T11:27:39;2.45;;;0.68;;
65879;SDS011;52661;51.364;6.054;2023-07-13T11:35:40;3.97;;;0.85;;
65879;SDS011;52661;51.364;6.054;2023-07-13T11:38:17;4.43;;;0.90;;
65879;SDS011;52661;51.364;6.054;2023-07-13T11:40:44;4.13;;;1.02;;
65879;SDS011;52661;51.364;6.054;2023-07-13T11:43:12;5.32;;;0.98;;
65879;SDS011;52661;51.364;6.054;2023-07-13T11:45:40;4.18;;;1.35;;
65879;SDS011;52661;51.364;6.054;2023-07-13T11:48:16;3.38;;;1.10;;
65879;SDS011;52661;51.364;6.054;2023-07-13T11:50:43;3.17;;;1.42;;
65879;SDS011;52661;51.364;6.054;2023-07-13T11:53:16;2.15;;;0.60;;
65879;SDS011;52661;51.364;6.054;2023-07-13T11:55:42;3.05;;;0.93;;
65879;SDS011;52661;51.364;6.054;2023-07-13T11:58:07;4.80;;;1.10;;
65879;SDS011;52661;51.364;6.054;2023-07-13T12:00:35;3.80;;;1.02;;
65879;SDS011;52661;51.364;6.054;2023-07-13T12:07:57;5.22;;;0.70;;
65879;SDS011;52661;51.364;6.054;2023-07-13T12:10:24;3.35;;;0.93;;
65879;SDS011;52661;51.364;6.054;2023-07-13T12:12:55;5.40;;;1.58;;
65879;SDS011;52661;51.364;6.054;2023-07-13T12:15:22;4.68;;;1.55;;
65879;SDS011;52661;51.364;6.054;2023-07-13T12:20:22;3.50;;;0.95;;
65879;SDS011;52661;51.364;6.054;2023-07-13T12:22:51;3.22;;;1.20;;
65879;SDS011;52661;51.364;6.054;2023-07-13T12:25:17;1.83;;;0.70;;
65879;SDS011;52661;51.364;6.054;2023-07-13T12:27:46;4.35;;;0.77;;
65879;SDS011;52661;51.364;6.054;2023-07-13T12:32:55;2.83;;;1.13;;
65879;SDS011;52661;51.364;6.054;2023-07-13T12:35:25;3.63;;;0.93;;
65879;SDS011;52661;51.364;6.054;2023-07-13T12:37:54;3.42;;;0.63;;
65879;SDS011;52661;51.364;6.054;2023-07-13T12:40:24;3.42;;;1.23;;
65879;SDS011;52661;51.364;6.054;2023-07-13T12:42:58;4.88;;;1.02;;
65879;SDS011;52661;51.364;6.054;2023-07-13T12:45:25;5.00;;;1.20;;
65879;SDS011;52661;51.364;6.054;2023-07-13T12:47:57;2.70;;;0.45;;
65879;SDS011;52661;51.364;6.054;2023-07-13T12:50:28;4.40;;;1.30;;
65879;SDS011;52661;51.364;6.054;2023-07-13T12:52:59;3.10;;;1.73;;
65879;SDS011;52661;51.364;6.054;2023-07-13T12:55:39;1.92;;;0.77;;
65879;SDS011;52661;51.364;6.054;2023-07-13T12:58:10;6.78;;;0.80;;
65879;SDS011;52661;51.364;6.054;2023-07-13T13:00:47;3.67;;;0.73;;
65879;SDS011;52661;51.364;6.054;2023-07-13T13:03:22;3.10;;;0.93;;
65879;SDS011;52661;51.364;6.054;2023-07-13T13:08:28;2.25;;;0.80;;
65879;SDS011;52661;51.364;6.054;2023-07-13T13:10:55;4.90;;;1.02;;
65879;SDS011;52661;51.364;6.054;2023-07-13T13:13:20;3.15;;;1.48;;
65879;SDS011;52661;51.364;6.054;2023-07-13T13:15:46;2.40;;;0.55;;
65879;SDS011;52661;51.364;6.054;2023-07-13T13:18:15;4.03;;;0.93;;
65879;SDS011;52661;51.364;6.054;2023-07-13T13:20:42;6.68;;;0.95;;
65879;SDS011;52661;51.364;6.054;2023-07-13T13:23:18;6.15;;;0.95;;
65879;SDS011;52661;51.364;6.054;2023-07-13T13:25:46;5.22;;;1.83;;
65879;SDS011;52661;51.364;6.054;2023-07-13T13:30:43;2.13;;;0.70;;
65879;SDS011;52661;51.364;6.054;2023-07-13T13:33:13;4.75;;;1.50;;
65879;SDS011;52661;51.364;6.054;2023-07-13T13:35:41;2.70;;;1.60;;
65879;SDS011;52661;51.364;6.054;2023-07-13T13:38:12;3.85;;;1.08;;
65879;SDS011;52661;51.364;6.054;2023-07-13T13:40:39;3.83;;;0.85;;
65879;SDS011;52661;51.364;6.054;2023-07-13T13:43:20;8.88;;;1.38;;
65879;SDS011;52661;51.364;6.054;2023-07-13T13:45:51;3.47;;;0.95;;
65879;SDS011;52661;51.364;6.054;2023-07-13T13:48:18;5.55;;;1.20;;
65879;SDS011;52661;51.364;6.054;2023-07-13T13:50:45;2.15;;;0.88;;
65879;SDS011;52661;51.364;6.054;2023-07-13T13:53:12;3.00;;;0.70;;
65879;SDS011;52661;51.364;6.054;2023-07-13T13:55:41;3.63;;;0.85;;
65879;SDS011;52661;51.364;6.054;2023-07-13T13:58:09;3.08;;;0.75;;
65879;SDS011;52661;51.364;6.054;2023-07-13T14:00:38;3.83;;;0.80;;
65879;SDS011;52661;51.364;6.054;2023-07-13T14:03:04;3.65;;;0.80;;
65879;SDS011;52661;51.364;6.054;2023-07-13T14:05:31;4.20;;;1.58;;
65879;SDS011;52661;51.364;6.054;2023-07-13T14:07:57;4.00;;;0.95;;
65879;SDS011;52661;51.364;6.054;2023-07-13T14:10:22;3.72;;;1.05;;
65879;SDS011;52661;51.364;6.054;2023-07-13T14:12:50;3.83;;;1.02;;
65879;SDS011;52661;51.364;6.054;2023-07-13T14:15:20;5.05;;;0.85;;
65879;SDS011;52661;51.364;6.054;2023-07-13T14:17:47;3.03;;;1.08;;
65879;SDS011;52661;51.364;6.054;2023-07-13T14:20:20;4.95;;;1.05;;
65879;SDS011;52661;51.364;6.054;2023-07-13T14:22:49;2.25;;;0.73;;
65879;SDS011;52661;51.364;6.054;2023-07-13T14:25:15;4.40;;;1.35;;
65879;SDS011;52661;51.364;6.054;2023-07-13T14:27:43;3.65;;;1.67;;
65879;SDS011;52661;51.364;6.054;2023-07-13T14:30:17;5.22;;;1.27;;
65879;SDS011;52661;51.364;6.054;2023-07-13T14:32:44;4.15;;;1.20;;
65879;SDS011;52661;51.364;6.054;2023-07-13T14:35:11;3.60;;;1.35;;
65879;SDS011;52661;51.364;6.054;2023-07-13T14:37:38;3.55;;;1.35;;
65879;SDS011;52661;51.364;6.054;2023-07-13T14:40:14;2.40;;;0.75;;
65879;SDS011;52661;51.364;6.054;2023-07-13T14:42:46;3.13;;;0.93;;
65879;SDS011;52661;51.364;6.054;2023-07-13T14:45:16;4.53;;;1.55;;
65879;SDS011;52661;51.364;6.054;2023-07-13T14:47:43;4.55;;;1.80;;
65879;SDS011;52661;51.364;6.054;2023-07-13T14:50:16;3.25;;;1.55;;
65879;SDS011;52661;51.364;6.054;2023-07-13T14:52:49;5.63;;;1.27;;
65879;SDS011;52661;51.364;6.054;2023-07-13T14:55:16;2.90;;;0.70;;
65879;SDS011;52661;51.364;6.054;2023-07-13T14:57:43;5.10;;;1.63;;
65879;SDS011;52661;51.364;6.054;2023-07-13T15:00:15;4.78;;;1.38;;
65879;SDS011;52661;51.364;6.054;2023-07-13T15:02:44;5.63;;;1.58;;
65879;SDS011;52661;51.364;6.054;2023-07-13T15:05:14;5.30;;;1.75;;
65879;SDS011;52661;51.364;6.054;2023-07-13T15:07:41;3.85;;;1.38;;
65879;SDS011;52661;51.364;6.054;2023-07-13T15:10:17;2.35;;;0.70;;
65879;SDS011;52661;51.364;6.054;2023-07-13T15:12:45;6.43;;;1.63;;
65879;SDS011;52661;51.364;6.054;2023-07-13T15:15:12;1.85;;;0.88;;
65879;SDS011;52661;51.364;6.054;2023-07-13T15:17:39;2.95;;;0.85;;
65879;SDS011;52661;51.364;6.054;2023-07-13T15:20:10;5.53;;;1.17;;
65879;SDS011;52661;51.364;6.054;2023-07-13T15:22:41;5.45;;;1.13;;
65879;SDS011;52661;51.364;6.054;2023-07-13T15:25:20;4.25;;;1.48;;
65879;SDS011;52661;51.364;6.054;2023-07-13T15:27:49;3.83;;;0.90;;
65879;SDS011;52661;51.364;6.054;2023-07-13T15:30:15;3.28;;;1.10;;
65879;SDS011;52661;51.364;6.054;2023-07-13T15:32:41;4.45;;;1.00;;
65879;SDS011;52661;51.364;6.054;2023-07-13T15:35:16;3.45;;;1.15;;
65879;SDS011;52661;51.364;6.054;2023-07-13T15:37:43;2.17;;;1.02;;
65879;SDS011;52661;51.364;6.054;2023-07-13T15:40:10;7.28;;;1.75;;
65879;SDS011;52661;51.364;6.054;2023-07-13T15:42:38;2.85;;;1.02;;
65879;SDS011;52661;51.364;6.054;2023-07-13T15:45:13;3.65;;;1.23;;
65879;SDS011;52661;51.364;6.054;2023-07-13T15:47:45;3.47;;;0.80;;